sensor_id;sensor_type;location;lat;lon;timestamp;P1;durP1;ratioP1;P2;durP2;ratioP2
4686;SDS011;2357;47.316;-1.348;2023-06-10T00:00:35;5.00;;;4.40;;
4686;SDS011;2357;47.316;-1.348;2023-06-10T00:03:01;5.77;;;3.80;;
4686;SDS011;2357;47.316;-1.348;2023-06-10T00:05:27;6.83;;;3.73;;
4686;SDS011;2357;47.316;-1.348;2023-06-10T00:07:55;4.03;;;3.67;;
4686;SDS011;2357;47.316;-1.348;2023-06-10T00:10:21;4.37;;;3.80;;
4686;SDS011;2357;47.316;-1.348;2023-06-10T00:12:47;2.40;;;2.30;;
4686;SDS011;2357;47.316;-1.348;2023-06-10T00:15:13;1.83;;;1.63;;
4686;SDS011;2357;47.316;-1.348;2023-06-10T00:17:38;4.30;;;1.97;;
4686;SDS011;2357;47.316;-1.348;2023-06-10T00:20:06;3.37;;;2.10;;
4686;SDS011;2357;47.316;-1.348;2023-06-10T00:22:37;16.17;;;2.23;;
4686;SDS011;2357;47.316;-1.348;2023-06-10T00:25:05;6.23;;;1.90;;
4686;SDS011;2357;47.316;-1.348;2023-06-10T00:27:31;1.80;;;1.70;;
4686;SDS011;2357;47.316;-1.348;2023-06-10T00:30:01;5.03;;;1.80;;
4686;SDS011;2357;47.316;-1.348;2023-06-10T00:32:29;4.53;;;2.00;;
4686;SDS011;2357;47.316;-1.348;2023-06-10T00:34:56;4.97;;;1.40;;
4686;SDS011;2357;47.316;-1.348;2023-06-10T00:37:21;1.43;;;1.33;;
4686;SDS011;2357;47.316;-1.348;2023-06-10T00:39:47;1.43;;;1.27;;
4686;SDS011;2357;47.316;-1.348;2023-06-10T00:42:13;1.77;;;1.67;;
4686;SDS011;2357;47.316;-1.348;2023-06-10T00:44:39;13.60;;;2.20;;
4686;SDS011;2357;47.316;-1.348;2023-06-10T00:47:05;4.93;;;1.90;;
4686;SDS011;2357;47.316;-1.348;2023-06-10T00:49:31;2.83;;;1.53;;
4686;SDS011;2357;47.316;-1.348;2023-06-10T00:51:57;3.07;;;1.60;;
4686;SDS011;2357;47.316;-1.348;2023-06-10T00:54:23;1.67;;;1.30;;
4686;SDS011;2357;47.316;-1.348;2023-06-10T00:56:50;4.90;;;1.90;;
4686;SDS011;2357;47.316;-1.348;2023-06-10T00:59:17;4.43;;;1.70;;
4686;SDS011;2357;47.316;-1.348;2023-06-10T01:01:43;4.30;;;1.70;;
4686;SDS011;2357;47.316;-1.348;2023-06-10T01:04:12;2.13;;;2.03;;
4686;SDS011;2357;47.316;-1.348;2023-06-10T01:09:38;2.00;;;1.83;;
4686;SDS011;2357;47.316;-1.348;2023-06-10T01:14:37;7.93;;;1.80;;
4686;SDS011;2357;47.316;-1.348;2023-06-10T01:17:09;17.67;;;2.23;;
4686;SDS011;2357;47.316;-1.348;2023-06-10T01:19:36;2.70;;;1.97;;
4686;SDS011;2357;47.316;-1.348;2023-06-10T01:22:02;2.00;;;1.90;;
4686;SDS011;2357;47.316;-1.348;2023-06-10T01:24:28;2.30;;;2.00;;
4686;SDS011;2357;47.316;-1.348;2023-06-10T01:26:59;1.87;;;1.73;;
4686;SDS011;2357;47.316;-1.348;2023-06-10T01:29:40;2.70;;;2.10;;
4686;SDS011;2357;47.316;-1.348;2023-06-10T01:32:21;7.00;;;1.97;;
4686;SDS011;2357;47.316;-1.348;2023-06-10T01:34:54;12.73;;;2.20;;
4686;SDS011;2357;47.316;-1.348;2023-06-10T01:37:21;1.90;;;1.80;;
4686;SDS011;2357;47.316;-1.348;2023-06-10T01:39:49;4.93;;;1.70;;
4686;SDS011;2357;47.316;-1.348;2023-06-10T01:42:16;2.10;;;2.00;;
4686;SDS011;2357;47.316;-1.348;2023-06-10T01:44:42;3.70;;;2.73;;
4686;SDS011;2357;47.316;-1.348;2023-06-10T01:47:08;9.10;;;2.67;;
4686;SDS011;2357;47.316;-1.348;2023-06-10T01:49:34;2.90;;;2.17;;
4686;SDS011;2357;47.316;-1.348;2023-06-10T01:52:00;3.70;;;2.43;;
4686;SDS011;2357;47.316;-1.348;2023-06-10T01:54:25;2.93;;;2.47;;
4686;SDS011;2357;47.316;-1.348;2023-06-10T01:56:51;2.93;;;2.70;;
4686;SDS011;2357;47.316;-1.348;2023-06-10T01:59:17;2.40;;;2.30;;
4686;SDS011;2357;47.316;-1.348;2023-06-10T02:01:42;2.80;;;2.20;;
4686;SDS011;2357;47.316;-1.348;2023-06-10T02:04:08;3.40;;;3.00;;
4686;SDS011;2357;47.316;-1.348;2023-06-10T02:06:33;5.43;;;2.67;;
4686;SDS011;2357;47.316;-1.348;2023-06-10T02:09:00;5.40;;;2.83;;
4686;SDS011;2357;47.316;-1.348;2023-06-10T02:11:26;2.40;;;2.30;;
4686;SDS011;2357;47.316;-1.348;2023-06-10T02:13:51;4.30;;;2.70;;
4686;SDS011;2357;47.316;-1.348;2023-06-10T02:16:17;2.70;;;2.50;;
4686;SDS011;2357;47.316;-1.348;2023-06-10T02:18:43;9.97;;;2.70;;
4686;SDS011;2357;47.316;-1.348;2023-06-10T02:21:09;7.30;;;3.07;;
4686;SDS011;2357;47.316;-1.348;2023-06-10T02:23:35;4.50;;;3.07;;
4686;SDS011;2357;47.316;-1.348;2023-06-10T02:26:01;5.73;;;2.77;;
4686;SDS011;2357;47.316;-1.348;2023-06-10T02:28:27;6.20;;;2.30;;
4686;SDS011;2357;47.316;-1.348;2023-06-10T02:30:53;3.27;;;2.50;;
4686;SDS011;2357;47.316;-1.348;2023-06-10T02:33:18;10.33;;;3.00;;
4686;SDS011;2357;47.316;-1.348;2023-06-10T02:35:44;5.23;;;2.43;;
4686;SDS011;2357;47.316;-1.348;2023-06-10T02:38:10;4.30;;;2.60;;
4686;SDS011;2357;47.316;-1.348;2023-06-10T02:40:36;5.37;;;2.60;;
4686;SDS011;2357;47.316;-1.348;2023-06-10T02:43:01;4.60;;;2.80;;
4686;SDS011;2357;47.316;-1.348;2023-06-10T02:45:27;3.10;;;2.43;;
4686;SDS011;2357;47.316;-1.348;2023-06-10T02:47:53;3.33;;;2.70;;
4686;SDS011;2357;47.316;-1.348;2023-06-10T02:50:18;13.77;;;2.93;;
4686;SDS011;2357;47.316;-1.348;2023-06-10T02:52:44;3.83;;;3.13;;
4686;SDS011;2357;47.316;-1.348;2023-06-10T02:55:10;12.03;;;3.60;;
4686;SDS011;2357;47.316;-1.348;2023-06-10T02:57:36;6.90;;;2.27;;
4686;SDS011;2357;47.316;-1.348;2023-06-10T03:00:02;6.63;;;2.50;;
4686;SDS011;2357;47.316;-1.348;2023-06-10T03:02:32;4.93;;;2.63;;
4686;SDS011;2357;47.316;-1.348;2023-06-10T03:04:57;3.53;;;2.80;;
4686;SDS011;2357;47.316;-1.348;2023-06-10T03:07:23;3.83;;;2.83;;
4686;SDS011;2357;47.316;-1.348;2023-06-10T03:09:49;2.93;;;2.73;;
4686;SDS011;2357;47.316;-1.348;2023-06-10T03:12:15;5.67;;;3.37;;
4686;SDS011;2357;47.316;-1.348;2023-06-10T03:14:41;5.67;;;3.37;;
4686;SDS011;2357;47.316;-1.348;2023-06-10T03:17:07;3.87;;;3.40;;
4686;SDS011;2357;47.316;-1.348;2023-06-10T03:19:33;5.20;;;3.87;;
4686;SDS011;2357;47.316;-1.348;2023-06-10T03:22:13;5.10;;;4.13;;
4686;SDS011;2357;47.316;-1.348;2023-06-10T03:24:39;4.20;;;3.80;;
4686;SDS011;2357;47.316;-1.348;2023-06-10T03:27:08;4.10;;;3.70;;
4686;SDS011;2357;47.316;-1.348;2023-06-10T03:29:38;6.77;;;4.20;;
4686;SDS011;2357;47.316;-1.348;2023-06-10T03:32:04;5.07;;;3.60;;
4686;SDS011;2357;47.316;-1.348;2023-06-10T03:34:30;7.60;;;4.10;;
4686;SDS011;2357;47.316;-1.348;2023-06-10T03:36:56;6.27;;;3.70;;
4686;SDS011;2357;47.316;-1.348;2023-06-10T03:39:22;5.47;;;3.77;;
4686;SDS011;2357;47.316;-1.348;2023-06-10T03:41:48;9.33;;;4.40;;
4686;SDS011;2357;47.316;-1.348;2023-06-10T03:44:15;4.83;;;4.23;;
4686;SDS011;2357;47.316;-1.348;2023-06-10T03:46:40;8.20;;;3.83;;
4686;SDS011;2357;47.316;-1.348;2023-06-10T03:49:06;6.17;;;3.70;;
4686;SDS011;2357;47.316;-1.348;2023-06-10T03:51:32;8.23;;;3.87;;
4686;SDS011;2357;47.316;-1.348;2023-06-10T03:53:57;4.47;;;4.07;;
4686;SDS011;2357;47.316;-1.348;2023-06-10T03:56:23;3.97;;;3.67;;
4686;SDS011;2357;47.316;-1.348;2023-06-10T03:58:49;3.97;;;3.67;;
4686;SDS011;2357;47.316;-1.348;2023-06-10T04:01:14;11.03;;;5.00;;
4686;SDS011;2357;47.316;-1.348;2023-06-10T04:03:40;6.10;;;3.70;;
4686;SDS011;2357;47.316;-1.348;2023-06-10T04:06:07;4.63;;;3.90;;
4686;SDS011;2357;47.316;-1.348;2023-06-10T04:08:32;9.37;;;3.70;;
4686;SDS011;2357;47.316;-1.348;2023-06-10T04:10:58;6.97;;;3.93;;
4686;SDS011;2357;47.316;-1.348;2023-06-10T04:13:24;12.93;;;4.50;;
4686;SDS011;2357;47.316;-1.348;2023-06-10T04:15:50;7.73;;;4.07;;
4686;SDS011;2357;47.316;-1.348;2023-06-10T04:18:16;6.73;;;4.20;;
4686;SDS011;2357;47.316;-1.348;2023-06-10T04:20:41;5.90;;;4.20;;
4686;SDS011;2357;47.316;-1.348;2023-06-10T04:23:07;10.10;;;4.60;;
4686;SDS011;2357;47.316;-1.348;2023-06-10T04:25:33;8.63;;;4.03;;
4686;SDS011;2357;47.316;-1.348;2023-06-10T04:27:59;6.40;;;4.90;;
4686;SDS011;2357;47.316;-1.348;2023-06-10T04:30:25;14.07;;;5.00;;
4686;SDS011;2357;47.316;-1.348;2023-06-10T04:32:50;6.40;;;4.10;;
4686;SDS011;2357;47.316;-1.348;2023-06-10T04:35:17;6.43;;;3.43;;
4686;SDS011;2357;47.316;-1.348;2023-06-10T04:37:43;4.33;;;3.83;;
4686;SDS011;2357;47.316;-1.348;2023-06-10T04:40:08;5.13;;;4.30;;
4686;SDS011;2357;47.316;-1.348;2023-06-10T04:42:35;6.10;;;4.23;;
4686;SDS011;2357;47.316;-1.348;2023-06-10T04:45:01;3.93;;;3.60;;
4686;SDS011;2357;47.316;-1.348;2023-06-10T04:47:28;5.70;;;4.33;;
4686;SDS011;2357;47.316;-1.348;2023-06-10T04:49:57;5.97;;;5.20;;
4686;SDS011;2357;47.316;-1.348;2023-06-10T04:52:24;19.77;;;5.03;;
4686;SDS011;2357;47.316;-1.348;2023-06-10T04:54:49;8.53;;;5.50;;
4686;SDS011;2357;47.316;-1.348;2023-06-10T04:57:15;9.17;;;4.57;;
4686;SDS011;2357;47.316;-1.348;2023-06-10T04:59:40;14.87;;;5.90;;
4686;SDS011;2357;47.316;-1.348;2023-06-10T05:02:06;9.70;;;5.20;;
4686;SDS011;2357;47.316;-1.348;2023-06-10T05:04:32;9.00;;;4.80;;
4686;SDS011;2357;47.316;-1.348;2023-06-10T05:06:57;11.20;;;4.70;;
4686;SDS011;2357;47.316;-1.348;2023-06-10T05:09:23;12.43;;;6.03;;
4686;SDS011;2357;47.316;-1.348;2023-06-10T05:11:49;6.67;;;5.03;;
4686;SDS011;2357;47.316;-1.348;2023-06-10T05:14:14;6.83;;;4.70;;
4686;SDS011;2357;47.316;-1.348;2023-06-10T05:16:44;5.73;;;4.60;;
4686;SDS011;2357;47.316;-1.348;2023-06-10T05:19:09;8.40;;;5.43;;
4686;SDS011;2357;47.316;-1.348;2023-06-10T05:21:36;10.83;;;5.07;;
4686;SDS011;2357;47.316;-1.348;2023-06-10T05:24:02;8.77;;;5.00;;
4686;SDS011;2357;47.316;-1.348;2023-06-10T05:26:27;6.07;;;5.10;;
4686;SDS011;2357;47.316;-1.348;2023-06-10T05:28:54;8.17;;;5.10;;
4686;SDS011;2357;47.316;-1.348;2023-06-10T05:31:19;10.53;;;5.90;;
4686;SDS011;2357;47.316;-1.348;2023-06-10T05:33:45;9.00;;;5.20;;
4686;SDS011;2357;47.316;-1.348;2023-06-10T05:36:10;18.30;;;5.97;;
4686;SDS011;2357;47.316;-1.348;2023-06-10T05:38:36;9.77;;;5.50;;
4686;SDS011;2357;47.316;-1.348;2023-06-10T05:41:02;7.77;;;4.90;;
4686;SDS011;2357;47.316;-1.348;2023-06-10T05:43:28;10.93;;;4.60;;
4686;SDS011;2357;47.316;-1.348;2023-06-10T05:45:53;9.37;;;5.20;;
4686;SDS011;2357;47.316;-1.348;2023-06-10T05:48:19;9.60;;;4.70;;
4686;SDS011;2357;47.316;-1.348;2023-06-10T05:50:45;11.13;;;5.00;;
4686;SDS011;2357;47.316;-1.348;2023-06-10T05:53:13;7.50;;;4.30;;
4686;SDS011;2357;47.316;-1.348;2023-06-10T05:55:43;9.40;;;4.97;;
4686;SDS011;2357;47.316;-1.348;2023-06-10T05:58:09;11.73;;;5.20;;
4686;SDS011;2357;47.316;-1.348;2023-06-10T06:00:37;11.10;;;4.67;;
4686;SDS011;2357;47.316;-1.348;2023-06-10T06:03:05;7.97;;;4.90;;
4686;SDS011;2357;47.316;-1.348;2023-06-10T06:05:32;14.80;;;4.70;;
4686;SDS011;2357;47.316;-1.348;2023-06-10T06:08:00;9.53;;;4.70;;
4686;SDS011;2357;47.316;-1.348;2023-06-10T06:10:27;17.70;;;7.17;;
4686;SDS011;2357;47.316;-1.348;2023-06-10T06:12:52;11.80;;;5.23;;
4686;SDS011;2357;47.316;-1.348;2023-06-10T06:15:18;17.90;;;4.53;;
4686;SDS011;2357;47.316;-1.348;2023-06-10T06:17:44;9.90;;;4.50;;
4686;SDS011;2357;47.316;-1.348;2023-06-10T06:20:09;8.20;;;4.50;;
4686;SDS011;2357;47.316;-1.348;2023-06-10T06:22:35;16.13;;;4.40;;
4686;SDS011;2357;47.316;-1.348;2023-06-10T06:25:01;17.43;;;4.80;;
4686;SDS011;2357;47.316;-1.348;2023-06-10T06:27:27;15.40;;;4.43;;
4686;SDS011;2357;47.316;-1.348;2023-06-10T06:29:53;11.33;;;4.20;;
4686;SDS011;2357;47.316;-1.348;2023-06-10T06:32:19;17.63;;;5.07;;
4686;SDS011;2357;47.316;-1.348;2023-06-10T06:34:45;15.00;;;4.30;;
4686;SDS011;2357;47.316;-1.348;2023-06-10T06:37:11;15.77;;;6.50;;
4686;SDS011;2357;47.316;-1.348;2023-06-10T06:39:36;9.40;;;4.97;;
4686;SDS011;2357;47.316;-1.348;2023-06-10T06:42:02;12.80;;;6.03;;
4686;SDS011;2357;47.316;-1.348;2023-06-10T06:44:28;12.10;;;5.60;;
4686;SDS011;2357;47.316;-1.348;2023-06-10T06:46:54;21.67;;;7.17;;
4686;SDS011;2357;47.316;-1.348;2023-06-10T06:49:20;16.53;;;8.10;;
4686;SDS011;2357;47.316;-1.348;2023-06-10T06:51:45;18.57;;;9.20;;
4686;SDS011;2357;47.316;-1.348;2023-06-10T06:54:11;18.13;;;8.00;;
4686;SDS011;2357;47.316;-1.348;2023-06-10T06:56:37;15.93;;;7.67;;
4686;SDS011;2357;47.316;-1.348;2023-06-10T06:59:03;19.23;;;8.47;;
4686;SDS011;2357;47.316;-1.348;2023-06-10T07:01:29;15.67;;;8.80;;
4686;SDS011;2357;47.316;-1.348;2023-06-10T07:03:55;17.43;;;8.17;;
4686;SDS011;2357;47.316;-1.348;2023-06-10T07:06:20;15.00;;;8.90;;
4686;SDS011;2357;47.316;-1.348;2023-06-10T07:08:46;18.53;;;7.80;;
4686;SDS011;2357;47.316;-1.348;2023-06-10T07:11:12;21.23;;;8.80;;
4686;SDS011;2357;47.316;-1.348;2023-06-10T07:13:37;17.40;;;8.20;;
4686;SDS011;2357;47.316;-1.348;2023-06-10T07:16:03;16.50;;;8.40;;
4686;SDS011;2357;47.316;-1.348;2023-06-10T07:18:29;15.33;;;9.27;;
4686;SDS011;2357;47.316;-1.348;2023-06-10T07:20:54;11.97;;;7.60;;
4686;SDS011;2357;47.316;-1.348;2023-06-10T07:23:20;13.53;;;8.33;;
4686;SDS011;2357;47.316;-1.348;2023-06-10T07:25:45;12.60;;;9.23;;
4686;SDS011;2357;47.316;-1.348;2023-06-10T07:28:11;13.00;;;9.80;;
4686;SDS011;2357;47.316;-1.348;2023-06-10T07:30:37;20.80;;;8.90;;
4686;SDS011;2357;47.316;-1.348;2023-06-10T07:33:02;20.47;;;10.97;;
4686;SDS011;2357;47.316;-1.348;2023-06-10T07:35:28;24.83;;;9.10;;
4686;SDS011;2357;47.316;-1.348;2023-06-10T07:37:53;14.63;;;9.57;;
4686;SDS011;2357;47.316;-1.348;2023-06-10T07:40:19;15.13;;;9.73;;
4686;SDS011;2357;47.316;-1.348;2023-06-10T07:42:45;16.00;;;9.60;;
4686;SDS011;2357;47.316;-1.348;2023-06-10T07:45:10;15.50;;;9.10;;
4686;SDS011;2357;47.316;-1.348;2023-06-10T07:47:36;13.83;;;9.53;;
4686;SDS011;2357;47.316;-1.348;2023-06-10T07:50:02;18.23;;;9.90;;
4686;SDS011;2357;47.316;-1.348;2023-06-10T07:52:27;15.83;;;8.83;;
4686;SDS011;2357;47.316;-1.348;2023-06-10T07:54:53;13.90;;;9.33;;
4686;SDS011;2357;47.316;-1.348;2023-06-10T07:57:19;15.57;;;9.73;;
4686;SDS011;2357;47.316;-1.348;2023-06-10T07:59:45;14.50;;;10.03;;
4686;SDS011;2357;47.316;-1.348;2023-06-10T08:02:10;16.47;;;9.97;;
4686;SDS011;2357;47.316;-1.348;2023-06-10T08:04:36;18.60;;;9.43;;
4686;SDS011;2357;47.316;-1.348;2023-06-10T08:07:02;19.30;;;10.00;;
4686;SDS011;2357;47.316;-1.348;2023-06-10T08:09:28;13.97;;;8.80;;
4686;SDS011;2357;47.316;-1.348;2023-06-10T08:11:54;13.97;;;8.73;;
4686;SDS011;2357;47.316;-1.348;2023-06-10T08:14:20;8.77;;;7.40;;
4686;SDS011;2357;47.316;-1.348;2023-06-10T08:16:46;13.23;;;9.07;;
4686;SDS011;2357;47.316;-1.348;2023-06-10T08:19:12;19.67;;;9.83;;
4686;SDS011;2357;47.316;-1.348;2023-06-10T08:21:37;14.97;;;8.60;;
4686;SDS011;2357;47.316;-1.348;2023-06-10T08:24:04;11.93;;;8.60;;
4686;SDS011;2357;47.316;-1.348;2023-06-10T08:26:31;11.00;;;8.57;;
4686;SDS011;2357;47.316;-1.348;2023-06-10T08:28:56;14.93;;;8.30;;
4686;SDS011;2357;47.316;-1.348;2023-06-10T08:31:22;15.80;;;8.60;;
4686;SDS011;2357;47.316;-1.348;2023-06-10T08:33:47;12.10;;;8.47;;
4686;SDS011;2357;47.316;-1.348;2023-06-10T08:36:13;12.03;;;8.67;;
4686;SDS011;2357;47.316;-1.348;2023-06-10T08:38:39;14.00;;;7.00;;
4686;SDS011;2357;47.316;-1.348;2023-06-10T08:41:05;14.07;;;8.63;;
4686;SDS011;2357;47.316;-1.348;2023-06-10T08:43:45;10.50;;;7.90;;
4686;SDS011;2357;47.316;-1.348;2023-06-10T08:46:31;13.40;;;8.40;;
4686;SDS011;2357;47.316;-1.348;2023-06-10T08:48:58;11.10;;;8.40;;
4686;SDS011;2357;47.316;-1.348;2023-06-10T08:51:27;14.93;;;9.30;;
4686;SDS011;2357;47.316;-1.348;2023-06-10T08:54:04;14.20;;;8.93;;
4686;SDS011;2357;47.316;-1.348;2023-06-10T08:56:40;14.33;;;10.47;;
4686;SDS011;2357;47.316;-1.348;2023-06-10T08:59:06;14.80;;;8.73;;
4686;SDS011;2357;47.316;-1.348;2023-06-10T09:01:34;15.60;;;10.57;;
4686;SDS011;2357;47.316;-1.348;2023-06-10T09:04:00;18.40;;;10.40;;
4686;SDS011;2357;47.316;-1.348;2023-06-10T09:06:27;13.90;;;9.90;;
4686;SDS011;2357;47.316;-1.348;2023-06-10T09:08:53;13.50;;;10.00;;
4686;SDS011;2357;47.316;-1.348;2023-06-10T09:11:19;9.43;;;8.53;;
4686;SDS011;2357;47.316;-1.348;2023-06-10T09:13:45;16.17;;;10.27;;
4686;SDS011;2357;47.316;-1.348;2023-06-10T09:16:10;18.00;;;9.73;;
4686;SDS011;2357;47.316;-1.348;2023-06-10T09:18:37;14.40;;;8.30;;
4686;SDS011;2357;47.316;-1.348;2023-06-10T09:21:03;10.83;;;8.93;;
4686;SDS011;2357;47.316;-1.348;2023-06-10T09:23:29;14.40;;;8.93;;
4686;SDS011;2357;47.316;-1.348;2023-06-10T09:25:56;11.87;;;8.63;;
4686;SDS011;2357;47.316;-1.348;2023-06-10T09:28:23;11.67;;;7.87;;
4686;SDS011;2357;47.316;-1.348;2023-06-10T09:30:49;11.70;;;7.97;;
4686;SDS011;2357;47.316;-1.348;2023-06-10T09:33:15;10.77;;;7.50;;
4686;SDS011;2357;47.316;-1.348;2023-06-10T09:35:47;11.50;;;7.93;;
4686;SDS011;2357;47.316;-1.348;2023-06-10T09:38:21;12.13;;;8.10;;
4686;SDS011;2357;47.316;-1.348;2023-06-10T09:40:50;16.83;;;10.37;;
4686;SDS011;2357;47.316;-1.348;2023-06-10T09:43:17;10.53;;;7.77;;
4686;SDS011;2357;47.316;-1.348;2023-06-10T09:45:43;21.07;;;7.80;;
4686;SDS011;2357;47.316;-1.348;2023-06-10T09:48:08;12.33;;;7.10;;
4686;SDS011;2357;47.316;-1.348;2023-06-10T09:50:34;11.50;;;8.00;;
4686;SDS011;2357;47.316;-1.348;2023-06-10T09:53:06;13.43;;;7.60;;
4686;SDS011;2357;47.316;-1.348;2023-06-10T09:55:32;7.67;;;5.80;;
4686;SDS011;2357;47.316;-1.348;2023-06-10T09:57:59;9.70;;;6.00;;
4686;SDS011;2357;47.316;-1.348;2023-06-10T10:00:25;9.03;;;6.00;;
4686;SDS011;2357;47.316;-1.348;2023-06-10T10:02:51;8.13;;;5.93;;
4686;SDS011;2357;47.316;-1.348;2023-06-10T10:05:20;10.20;;;6.43;;
4686;SDS011;2357;47.316;-1.348;2023-06-10T10:07:47;10.70;;;6.20;;
4686;SDS011;2357;47.316;-1.348;2023-06-10T10:10:13;9.43;;;5.73;;
4686;SDS011;2357;47.316;-1.348;2023-06-10T10:12:40;7.13;;;5.20;;
4686;SDS011;2357;47.316;-1.348;2023-06-10T10:15:07;13.23;;;6.50;;
4686;SDS011;2357;47.316;-1.348;2023-06-10T10:17:38;10.90;;;4.57;;
4686;SDS011;2357;47.316;-1.348;2023-06-10T10:20:10;10.10;;;5.67;;
4686;SDS011;2357;47.316;-1.348;2023-06-10T10:22:39;9.23;;;5.37;;
4686;SDS011;2357;47.316;-1.348;2023-06-10T10:25:11;10.53;;;5.80;;
4686;SDS011;2357;47.316;-1.348;2023-06-10T10:28:14;7.67;;;5.60;;
4686;SDS011;2357;47.316;-1.348;2023-06-10T10:30:39;16.07;;;7.10;;
4686;SDS011;2357;47.316;-1.348;2023-06-10T10:36:07;5.73;;;5.20;;
4686;SDS011;2357;47.316;-1.348;2023-06-10T10:38:33;6.23;;;5.47;;
4686;SDS011;2357;47.316;-1.348;2023-06-10T10:41:00;7.90;;;5.13;;
4686;SDS011;2357;47.316;-1.348;2023-06-10T10:43:27;8.60;;;5.43;;
4686;SDS011;2357;47.316;-1.348;2023-06-10T10:45:59;10.23;;;5.40;;
4686;SDS011;2357;47.316;-1.348;2023-06-10T10:48:25;8.80;;;5.20;;
4686;SDS011;2357;47.316;-1.348;2023-06-10T10:50:57;8.33;;;5.60;;
4686;SDS011;2357;47.316;-1.348;2023-06-10T10:53:23;11.00;;;5.50;;
4686;SDS011;2357;47.316;-1.348;2023-06-10T10:56:12;6.93;;;5.10;;
4686;SDS011;2357;47.316;-1.348;2023-06-10T10:58:39;6.53;;;5.13;;
4686;SDS011;2357;47.316;-1.348;2023-06-10T11:01:11;9.10;;;6.47;;
4686;SDS011;2357;47.316;-1.348;2023-06-10T11:03:44;8.27;;;5.50;;
4686;SDS011;2357;47.316;-1.348;2023-06-10T11:06:13;8.17;;;4.90;;
4686;SDS011;2357;47.316;-1.348;2023-06-10T11:11:18;3.50;;;3.20;;
4686;SDS011;2357;47.316;-1.348;2023-06-10T11:14:07;7.87;;;3.80;;
4686;SDS011;2357;47.316;-1.348;2023-06-10T11:16:38;10.60;;;6.20;;
4686;SDS011;2357;47.316;-1.348;2023-06-10T11:19:08;9.00;;;5.10;;
4686;SDS011;2357;47.316;-1.348;2023-06-10T11:24:25;4.30;;;4.00;;
4686;SDS011;2357;47.316;-1.348;2023-06-10T11:26:51;6.97;;;4.53;;
4686;SDS011;2357;47.316;-1.348;2023-06-10T11:29:17;6.33;;;4.23;;
4686;SDS011;2357;47.316;-1.348;2023-06-10T11:31:48;3.53;;;3.20;;
4686;SDS011;2357;47.316;-1.348;2023-06-10T11:34:15;4.70;;;3.10;;
4686;SDS011;2357;47.316;-1.348;2023-06-10T11:36:48;4.37;;;2.90;;
4686;SDS011;2357;47.316;-1.348;2023-06-10T11:39:14;5.13;;;2.70;;
4686;SDS011;2357;47.316;-1.348;2023-06-10T11:41:40;4.40;;;3.50;;
4686;SDS011;2357;47.316;-1.348;2023-06-10T11:44:13;12.03;;;3.70;;
4686;SDS011;2357;47.316;-1.348;2023-06-10T11:46:39;3.20;;;2.90;;
4686;SDS011;2357;47.316;-1.348;2023-06-10T11:49:07;3.60;;;3.30;;
4686;SDS011;2357;47.316;-1.348;2023-06-10T11:51:34;5.97;;;3.87;;
4686;SDS011;2357;47.316;-1.348;2023-06-10T11:54:01;3.87;;;3.57;;
4686;SDS011;2357;47.316;-1.348;2023-06-10T11:56:27;14.73;;;5.03;;
4686;SDS011;2357;47.316;-1.348;2023-06-10T12:01:29;4.40;;;4.00;;
4686;SDS011;2357;47.316;-1.348;2023-06-10T12:03:59;5.37;;;4.23;;
4686;SDS011;2357;47.316;-1.348;2023-06-10T12:06:26;4.20;;;3.80;;
4686;SDS011;2357;47.316;-1.348;2023-06-10T12:08:53;5.03;;;3.23;;
4686;SDS011;2357;47.316;-1.348;2023-06-10T12:11:19;5.80;;;3.43;;
4686;SDS011;2357;47.316;-1.348;2023-06-10T12:13:48;3.20;;;2.47;;
4686;SDS011;2357;47.316;-1.348;2023-06-10T12:16:15;2.50;;;2.17;;
4686;SDS011;2357;47.316;-1.348;2023-06-10T12:18:43;3.87;;;2.13;;
4686;SDS011;2357;47.316;-1.348;2023-06-10T12:21:17;2.77;;;1.97;;
4686;SDS011;2357;47.316;-1.348;2023-06-10T12:26:42;2.80;;;2.60;;
4686;SDS011;2357;47.316;-1.348;2023-06-10T12:29:12;3.07;;;2.17;;
4686;SDS011;2357;47.316;-1.348;2023-06-10T12:34:34;4.03;;;2.40;;
4686;SDS011;2357;47.316;-1.348;2023-06-10T12:37:02;1.83;;;1.73;;
4686;SDS011;2357;47.316;-1.348;2023-06-10T12:39:33;1.77;;;1.63;;
4686;SDS011;2357;47.316;-1.348;2023-06-10T12:41:59;4.37;;;1.73;;
4686;SDS011;2357;47.316;-1.348;2023-06-10T12:44:32;1.30;;;1.20;;
4686;SDS011;2357;47.316;-1.348;2023-06-10T12:46:59;1.93;;;1.73;;
4686;SDS011;2357;47.316;-1.348;2023-06-10T12:49:25;1.40;;;1.30;;
4686;SDS011;2357;47.316;-1.348;2023-06-10T12:51:51;1.73;;;1.63;;
4686;SDS011;2357;47.316;-1.348;2023-06-10T12:54:17;4.03;;;1.77;;
4686;SDS011;2357;47.316;-1.348;2023-06-10T12:56:42;0.90;;;0.90;;
4686;SDS011;2357;47.316;-1.348;2023-06-10T12:59:08;9.10;;;1.10;;
4686;SDS011;2357;47.316;-1.348;2023-06-10T13:01:35;3.83;;;1.60;;
4686;SDS011;2357;47.316;-1.348;2023-06-10T13:04:02;1.30;;;1.30;;
4686;SDS011;2357;47.316;-1.348;2023-06-10T13:06:31;1.53;;;1.43;;
4686;SDS011;2357;47.316;-1.348;2023-06-10T13:08:58;1.17;;;1.17;;
4686;SDS011;2357;47.316;-1.348;2023-06-10T13:11:24;2.00;;;1.20;;
4686;SDS011;2357;47.316;-1.348;2023-06-10T13:13:50;1.60;;;1.50;;
4686;SDS011;2357;47.316;-1.348;2023-06-10T13:16:16;2.23;;;1.50;;
4686;SDS011;2357;47.316;-1.348;2023-06-10T13:18:42;1.47;;;1.30;;
4686;SDS011;2357;47.316;-1.348;2023-06-10T13:21:08;1.03;;;1.00;;
4686;SDS011;2357;47.316;-1.348;2023-06-10T13:23:33;1.40;;;1.30;;
4686;SDS011;2357;47.316;-1.348;2023-06-10T13:25:59;1.87;;;1.70;;
4686;SDS011;2357;47.316;-1.348;2023-06-10T13:28:24;1.20;;;1.20;;
4686;SDS011;2357;47.316;-1.348;2023-06-10T13:30:50;1.47;;;1.37;;
4686;SDS011;2357;47.316;-1.348;2023-06-10T13:33:16;1.10;;;1.10;;
4686;SDS011;2357;47.316;-1.348;2023-06-10T13:35:41;2.57;;;1.20;;
4686;SDS011;2357;47.316;-1.348;2023-06-10T13:38:07;2.43;;;1.20;;
4686;SDS011;2357;47.316;-1.348;2023-06-10T13:40:33;2.47;;;1.13;;
4686;SDS011;2357;47.316;-1.348;2023-06-10T13:42:59;8.93;;;1.30;;
4686;SDS011;2357;47.316;-1.348;2023-06-10T13:45:24;3.17;;;0.90;;
4686;SDS011;2357;47.316;-1.348;2023-06-10T13:47:50;2.60;;;1.30;;
4686;SDS011;2357;47.316;-1.348;2023-06-10T13:50:16;1.50;;;1.40;;
4686;SDS011;2357;47.316;-1.348;2023-06-10T13:52:42;1.47;;;1.37;;
4686;SDS011;2357;47.316;-1.348;2023-06-10T13:55:07;1.37;;;0.93;;
4686;SDS011;2357;47.316;-1.348;2023-06-10T13:57:33;2.53;;;1.40;;
4686;SDS011;2357;47.316;-1.348;2023-06-10T13:59:59;1.97;;;1.27;;
4686;SDS011;2357;47.316;-1.348;2023-06-10T14:02:25;3.33;;;1.67;;
4686;SDS011;2357;47.316;-1.348;2023-06-10T14:04:50;1.20;;;0.97;;
4686;SDS011;2357;47.316;-1.348;2023-06-10T14:07:16;2.67;;;1.30;;
4686;SDS011;2357;47.316;-1.348;2023-06-10T14:09:42;3.27;;;1.10;;
4686;SDS011;2357;47.316;-1.348;2023-06-10T14:12:08;1.00;;;1.00;;
4686;SDS011;2357;47.316;-1.348;2023-06-10T14:14:34;1.00;;;1.00;;
4686;SDS011;2357;47.316;-1.348;2023-06-10T14:17:01;0.93;;;0.93;;
4686;SDS011;2357;47.316;-1.348;2023-06-10T14:19:28;6.07;;;1.30;;
4686;SDS011;2357;47.316;-1.348;2023-06-10T14:21:53;1.00;;;0.90;;
4686;SDS011;2357;47.316;-1.348;2023-06-10T14:24:20;1.33;;;0.90;;
4686;SDS011;2357;47.316;-1.348;2023-06-10T14:26:46;7.73;;;1.77;;
4686;SDS011;2357;47.316;-1.348;2023-06-10T14:29:12;2.17;;;1.10;;
4686;SDS011;2357;47.316;-1.348;2023-06-10T14:31:39;0.80;;;0.80;;
4686;SDS011;2357;47.316;-1.348;2023-06-10T14:34:05;0.80;;;0.80;;
4686;SDS011;2357;47.316;-1.348;2023-06-10T14:36:32;1.10;;;1.10;;
4686;SDS011;2357;47.316;-1.348;2023-06-10T14:38:58;0.80;;;0.80;;
4686;SDS011;2357;47.316;-1.348;2023-06-10T14:41:24;1.10;;;0.70;;
4686;SDS011;2357;47.316;-1.348;2023-06-10T14:43:51;0.60;;;0.60;;
4686;SDS011;2357;47.316;-1.348;2023-06-10T14:46:17;0.80;;;0.80;;
4686;SDS011;2357;47.316;-1.348;2023-06-10T14:48:42;0.70;;;0.70;;
4686;SDS011;2357;47.316;-1.348;2023-06-10T14:51:08;0.63;;;0.63;;
4686;SDS011;2357;47.316;-1.348;2023-06-10T14:53:34;0.70;;;0.70;;
4686;SDS011;2357;47.316;-1.348;2023-06-10T14:56:00;0.80;;;0.70;;
4686;SDS011;2357;47.316;-1.348;2023-06-10T14:58:25;3.60;;;0.60;;
4686;SDS011;2357;47.316;-1.348;2023-06-10T15:00:51;4.40;;;0.73;;
4686;SDS011;2357;47.316;-1.348;2023-06-10T15:03:17;1.07;;;0.67;;
4686;SDS011;2357;47.316;-1.348;2023-06-10T15:05:42;2.63;;;0.90;;
4686;SDS011;2357;47.316;-1.348;2023-06-10T15:08:08;0.80;;;0.80;;
4686;SDS011;2357;47.316;-1.348;2023-06-10T15:10:33;3.63;;;0.70;;
4686;SDS011;2357;47.316;-1.348;2023-06-10T15:12:59;0.50;;;0.50;;
4686;SDS011;2357;47.316;-1.348;2023-06-10T15:15:25;0.50;;;0.50;;